الصفحة الرئيسية
METAR-TAF:

METAR-TAF

مطار :

مطار الوجه المحلي

الوجه, السعودية

دائرة عرض: 26-12N, خط طول: 036-28E, ارتفاع: 20 متر

مراقبة الطقس الحالي

تاريخ ووقت الإصدار 58 دقيقة قبل الساعة 03:00UTC
ريح 5 عقدة من الشمال
درجة الحرارة 18°درجة مئوية
الرطوبة 68%
ضغط 1017 hPa
الرؤية 10 كم أو أكثر
الغيوم لا تقل 1500 م ولا وجود لمزنة ركامية السحاب الأسود

METAR: OEWJ 120300Z 36005KT CAVOK 18/12 Q1017 NOSIG

زمن: 06:58 (03:58 UTC)

توقعات

تاريخ ووقت الإصدار 4ساعات و 58 دقيقة قبل الساعة 23:00UTC
التوقعات صالحة من12 الساعة 00 UTC إلى 13 الساعة 06 UTC
ريح 6 عقدة من الشمال/الشمال الشرقي
الرؤية 10 كم أو أكثر
الغيوم لا تقل 1500 م ولا وجود لمزنة ركامية السحاب الأسود
أصبح
من 12 الساعة 06 UTC إلى 12 الساعة 08 UTC
ريح 14 عقدة من الشمال الغربي

TAF: OEWJ 112300Z 1200/1306 03006KT CAVOK BECMG 1206/1208 32014KT

أرصاد الطقس والتوقعات من أكثر من 4000 مطار (تقارير الطقس للمطار METAR والتنبؤ بالطقس بالمطارTAF).

المحطات المتاحة هي النقط الصفراء والحمراء على الخريطة.

حرك المؤشر فوق النقطة لمعرفة اسم المحطة.

ثم انقر لمعرفة أرصاد وتوقعات الطقس.

لتغيير الخارطة: اضغط على الأزرار الخضراء مع رمز الصليب الأسود للتكبير. على الزر الأخضر مع شرطة للتصغير، أو على الأسهم الخضراء للخرائط المجاورة.


METAR-TAF: